createdAt,value
2019-04-30T00:02:11.032Z,5.50
2019-04-30T00:04:45.312Z,5.60
2019-04-30T00:07:19.190Z,5.60
2019-04-30T00:09:53.999Z,5.60
2019-04-30T00:12:30.925Z,5.50
2019-04-30T00:15:06.109Z,5.10
2019-04-30T00:17:39.932Z,5.20
2019-04-30T00:20:11.638Z,5.60
2019-04-30T00:22:47.052Z,5.30
2019-04-30T00:25:15.335Z,5.60
2019-04-30T00:27:48.133Z,5.50
2019-04-30T00:30:21.654Z,5.30
2019-04-30T00:32:57.069Z,5.60
2019-04-30T00:35:30.412Z,5.50
2019-04-30T00:38:04.921Z,5.60
2019-04-30T00:40:38.133Z,5.60
2019-04-30T00:43:10.324Z,5.50
2019-04-30T00:45:44.833Z,5.50
2019-04-30T00:48:19.816Z,5.60
2019-04-30T00:50:51.744Z,5.50
2019-04-30T00:53:26.094Z,6.00
2019-04-30T00:55:58.516Z,4.70
2019-04-30T00:58:31.191Z,5.40
2019-04-30T01:01:12.377Z,5.20
2019-04-30T01:03:49.299Z,5.20
2019-04-30T01:06:26.762Z,5.40
2019-04-30T01:08:58.239Z,5.10
2019-04-30T01:11:35.446Z,5.30
2019-04-30T01:14:07.381Z,5.30
2019-04-30T01:16:40.691Z,5.10
2019-04-30T01:19:27.208Z,5.10
2019-04-30T01:21:47.104Z,5.10
2019-04-30T01:24:23.371Z,5.10
2019-04-30T01:26:53.939Z,5.10
2019-04-30T01:29:31.163Z,5.00
2019-04-30T01:32:01.397Z,4.80
2019-04-30T01:34:33.104Z,4.80
2019-04-30T01:37:05.309Z,4.80
2019-04-30T01:39:39.691Z,4.80
2019-04-30T01:42:11.491Z,4.60
2019-04-30T01:44:50.487Z,4.50
2019-04-30T01:47:27.490Z,4.40
2019-04-30T01:49:55.895Z,4.30
2019-04-30T01:52:35.174Z,4.30
2019-04-30T01:55:04.956Z,4.30
2019-04-30T01:57:55.199Z,4.20
2019-04-30T02:00:39.159Z,4.50
2019-04-30T02:03:11.276Z,4.40
2019-04-30T02:05:43.829Z,4.50
2019-04-30T02:08:16.145Z,4.40
2019-04-30T02:10:52.552Z,4.40
2019-04-30T02:13:25.741Z,4.40
2019-04-30T02:15:59.993Z,4.20
2019-04-30T02:18:32.343Z,4.20
2019-04-30T02:21:04.010Z,4.10
2019-04-30T02:23:35.544Z,4.10
2019-04-30T02:26:05.123Z,4.10
2019-04-30T02:28:34.698Z,4.10
2019-04-30T02:31:05.082Z,4.00
2019-04-30T02:33:36.849Z,4.10
2019-04-30T02:36:33.133Z,4.10
2019-04-30T02:39:03.036Z,4.30
2019-04-30T02:41:36.937Z,4.30
2019-04-30T02:44:10.478Z,3.70
2019-04-30T02:46:44.048Z,4.10
2019-04-30T02:49:14.902Z,4.10
2019-04-30T02:51:49.933Z,4.00
2019-04-30T02:54:25.929Z,4.00
2019-04-30T02:57:22.992Z,4.20
2019-04-30T03:00:13.449Z,4.10
2019-04-30T03:02:50.496Z,3.90
2019-04-30T03:05:21.404Z,3.90
2019-04-30T03:07:55.639Z,3.90
2019-04-30T03:10:30.409Z,3.90
2019-04-30T03:13:01.595Z,4.00
2019-04-30T03:15:33.817Z,3.90
2019-04-30T03:18:16.280Z,4.20
2019-04-30T03:20:54.969Z,4.30
2019-04-30T03:23:29.372Z,4.40
2019-04-30T03:26:00.452Z,4.50
2019-04-30T03:28:32.733Z,4.40
2019-04-30T03:31:05.408Z,4.50
2019-04-30T03:33:42.456Z,4.50
2019-04-30T03:36:14.587Z,4.60
2019-04-30T03:38:50.026Z,4.60
2019-04-30T03:41:20.853Z,4.60
2019-04-30T03:43:51.441Z,4.60
2019-04-30T03:46:21.142Z,4.70
2019-04-30T03:48:52.466Z,4.70
2019-04-30T03:51:24.933Z,4.80
2019-04-30T03:53:59.546Z,4.80
2019-04-30T03:56:30.147Z,4.90
2019-04-30T03:59:00.757Z,4.90
2019-04-30T04:01:53.877Z,5.00
2019-04-30T04:04:45.714Z,5.00
2019-04-30T04:07:39.343Z,5.10
2019-04-30T04:10:23.282Z,5.20
2019-04-30T04:12:55.472Z,5.40
2019-04-30T04:15:26.979Z,5.50
2019-04-30T04:18:00.519Z,5.60
2019-04-30T04:20:33.774Z,5.70
2019-04-30T04:23:05.983Z,5.90
2019-04-30T04:25:40.065Z,6.00
2019-04-30T04:28:13.861Z,6.10
2019-04-30T04:30:46.604Z,6.20
2019-04-30T04:33:19.956Z,6.40
2019-04-30T04:35:50.609Z,6.60
2019-04-30T04:38:21.883Z,6.90
2019-04-30T04:40:54.139Z,6.90
2019-04-30T04:43:24.201Z,7.00
2019-04-30T04:45:55.341Z,7.20
2019-04-30T04:48:30.508Z,7.40
2019-04-30T04:51:06.253Z,7.50
2019-04-30T04:53:40.108Z,7.80
2019-04-30T04:56:10.800Z,8.00
2019-04-30T04:58:42.901Z,8.20
2019-04-30T05:01:15.817Z,8.30
2019-04-30T05:03:49.025Z,8.40
2019-04-30T05:06:23.917Z,8.50
2019-04-30T05:08:54.913Z,8.80
2019-04-30T05:11:25.700Z,8.90
2019-04-30T05:13:54.817Z,8.80
2019-04-30T05:16:28.845Z,8.90
2019-04-30T05:19:02.901Z,9.20
2019-04-30T05:21:42.060Z,9.20
2019-04-30T05:24:09.556Z,9.10
2019-04-30T05:26:41.946Z,9.10
2019-04-30T05:29:12.501Z,9.20
2019-04-30T05:31:45.822Z,9.20
2019-04-30T05:34:18.648Z,9.30
2019-04-30T05:36:49.134Z,9.70
2019-04-30T05:39:19.254Z,9.90
2019-04-30T05:41:49.768Z,9.90
2019-04-30T05:44:20.564Z,9.80
2019-04-30T05:46:53.797Z,9.70
2019-04-30T05:49:28.742Z,9.60
2019-04-30T05:52:00.797Z,9.50
2019-04-30T05:54:31.046Z,9.50
2019-04-30T05:57:00.694Z,9.40
2019-04-30T05:59:31.245Z,9.60
2019-04-30T06:02:00.909Z,9.60
2019-04-30T06:04:31.410Z,9.60
2019-04-30T06:07:02.611Z,10.00
2019-04-30T06:09:44.014Z,10.40
2019-04-30T06:12:21.559Z,10.80
2019-04-30T06:14:58.991Z,11.00
2019-04-30T06:17:31.062Z,11.10
2019-04-30T06:20:03.226Z,11.20
2019-04-30T06:22:33.815Z,11.40
2019-04-30T06:25:05.522Z,11.40
2019-04-30T06:27:38.852Z,11.40
2019-04-30T06:30:12.123Z,11.50
2019-04-30T06:32:46.444Z,11.60
2019-04-30T06:35:21.774Z,11.70
2019-04-30T06:37:55.090Z,11.90
2019-04-30T06:40:29.315Z,11.60
2019-04-30T06:43:01.677Z,11.60
2019-04-30T06:45:34.197Z,11.50
2019-04-30T06:48:04.883Z,11.20
2019-04-30T06:50:34.089Z,11.20
2019-04-30T06:53:05.460Z,11.20
2019-04-30T06:55:39.254Z,11.10
2019-04-30T06:58:15.344Z,11.40
2019-04-30T07:00:45.270Z,11.30
2019-04-30T07:03:19.603Z,11.50
2019-04-30T07:05:52.925Z,11.60
2019-04-30T07:08:46.902Z,11.90
2019-04-30T07:11:44.412Z,12.10
2019-04-30T07:14:15.477Z,12.40
2019-04-30T07:16:45.409Z,12.70
2019-04-30T07:19:14.836Z,13.00
2019-04-30T07:21:45.290Z,13.10
2019-04-30T07:24:15.751Z,13.20
2019-04-30T07:26:48.813Z,13.40
2019-04-30T07:29:22.000Z,13.40
2019-04-30T07:31:55.250Z,13.20
2019-04-30T07:34:26.425Z,13.00
2019-04-30T07:37:11.820Z,12.90
2019-04-30T07:39:33.725Z,13.20
2019-04-30T07:42:06.540Z,13.30
2019-04-30T07:44:39.462Z,13.30
2019-04-30T07:47:09.651Z,13.10
2019-04-30T07:49:49.841Z,13.10
2019-04-30T07:52:11.808Z,13.00
2019-04-30T07:54:42.460Z,13.00
2019-04-30T07:57:12.965Z,12.80
2019-04-30T07:59:42.525Z,12.90
2019-04-30T08:02:14.897Z,12.80
2019-04-30T08:05:10.332Z,12.70
2019-04-30T08:07:41.117Z,12.70
2019-04-30T08:10:13.714Z,12.70
2019-04-30T08:12:50.585Z,12.60
2019-04-30T08:15:21.338Z,12.80
2019-04-30T08:18:02.651Z,12.90
2019-04-30T08:20:23.957Z,12.90
2019-04-30T08:22:56.145Z,12.90
2019-04-30T08:25:29.074Z,13.00
2019-04-30T08:28:00.692Z,13.00
2019-04-30T08:30:35.031Z,13.10
2019-04-30T08:33:09.458Z,13.20
2019-04-30T08:35:42.839Z,13.20
2019-04-30T08:38:14.481Z,13.10
2019-04-30T08:40:55.576Z,13.30
2019-04-30T08:43:20.239Z,13.20
2019-04-30T08:45:51.823Z,13.10
2019-04-30T08:48:24.504Z,13.20
2019-04-30T08:50:55.303Z,12.90
2019-04-30T08:53:32.986Z,12.90
2019-04-30T08:56:02.522Z,12.80
2019-04-30T08:58:34.298Z,12.90
2019-04-30T09:01:08.765Z,12.80
2019-04-30T09:03:39.262Z,12.70
2019-04-30T09:06:16.333Z,12.00
2019-04-30T09:08:49.049Z,11.70
2019-04-30T09:11:27.304Z,11.50
2019-04-30T09:13:54.788Z,11.60
2019-04-30T09:16:25.269Z,11.30
2019-04-30T09:18:59.377Z,10.90
2019-04-30T09:21:34.348Z,10.50
2019-04-30T09:24:06.670Z,10.20
2019-04-30T09:26:39.045Z,9.80
2019-04-30T09:29:13.196Z,9.70
2019-04-30T09:31:45.433Z,9.50
2019-04-30T09:34:21.004Z,9.70
2019-04-30T09:36:52.745Z,9.60
2019-04-30T09:39:25.939Z,9.30
2019-04-30T09:42:01.262Z,9.10
2019-04-30T09:44:34.483Z,9.20
2019-04-30T09:47:08.738Z,9.10
2019-04-30T09:49:41.462Z,8.60
2019-04-30T09:52:18.762Z,8.70
2019-04-30T09:54:50.038Z,9.00
2019-04-30T09:57:21.483Z,9.30
2019-04-30T09:59:52.326Z,8.80
2019-04-30T10:02:25.548Z,8.20
2019-04-30T10:04:57.076Z,7.50
2019-04-30T10:07:31.545Z,7.60
2019-04-30T10:10:04.589Z,7.40
2019-04-30T10:12:36.159Z,7.60
2019-04-30T10:15:15.462Z,7.90
2019-04-30T10:17:46.157Z,8.00
2019-04-30T10:20:22.806Z,8.00
2019-04-30T10:22:54.617Z,8.00
2019-04-30T10:25:26.865Z,8.20
2019-04-30T10:27:59.793Z,7.80
2019-04-30T10:30:35.962Z,7.80
2019-04-30T10:33:09.814Z,7.60
2019-04-30T10:35:40.112Z,7.90
2019-04-30T10:38:15.952Z,7.60
2019-04-30T10:40:48.779Z,7.70
2019-04-30T10:43:20.320Z,7.60
2019-04-30T10:45:52.533Z,7.50
2019-04-30T10:48:21.710Z,7.60
2019-04-30T10:50:52.855Z,8.00
2019-04-30T10:53:26.029Z,8.00
2019-04-30T10:56:01.193Z,8.20
2019-04-30T10:58:34.476Z,8.30
2019-04-30T11:01:09.246Z,8.10
2019-04-30T11:03:39.505Z,7.70
2019-04-30T11:06:16.820Z,7.70
2019-04-30T11:08:49.529Z,7.80
2019-04-30T11:11:21.096Z,7.40
2019-04-30T11:13:53.231Z,7.60
2019-04-30T11:16:27.532Z,7.80
2019-04-30T11:19:00.017Z,7.60
2019-04-30T11:21:33.780Z,7.80
2019-04-30T11:24:05.228Z,7.70
2019-04-30T11:26:39.720Z,7.60
2019-04-30T11:29:11.022Z,7.60
2019-04-30T11:32:06.530Z,7.60
2019-04-30T11:34:37.141Z,7.90
2019-04-30T11:37:08.304Z,7.70
2019-04-30T11:39:41.943Z,7.60
2019-04-30T11:42:14.001Z,7.70
2019-04-30T11:44:45.298Z,7.80
2019-04-30T11:47:22.929Z,7.70
2019-04-30T11:49:54.957Z,7.90
2019-04-30T11:52:28.239Z,8.10
2019-04-30T11:54:59.747Z,8.30
2019-04-30T11:57:35.396Z,8.50
2019-04-30T12:00:10.783Z,8.70
2019-04-30T12:02:45.046Z,9.00
2019-04-30T12:05:20.789Z,9.10
2019-04-30T12:08:16.160Z,9.20
2019-04-30T12:11:02.627Z,9.30
2019-04-30T12:13:35.220Z,9.40
2019-04-30T12:16:08.570Z,9.40
2019-04-30T12:18:40.361Z,9.50
2019-04-30T12:21:12.822Z,9.60
2019-04-30T12:23:44.189Z,9.70
2019-04-30T12:26:14.038Z,9.80
2019-04-30T12:28:45.645Z,10.20
2019-04-30T12:31:16.319Z,10.50
2019-04-30T12:33:46.971Z,10.70
2019-04-30T12:36:18.936Z,11.00
2019-04-30T12:38:52.658Z,11.30
2019-04-30T12:41:23.057Z,11.30
2019-04-30T12:43:52.784Z,11.60
2019-04-30T12:46:28.884Z,11.80
2019-04-30T12:49:19.020Z,11.80
2019-04-30T12:52:11.793Z,12.00
2019-04-30T12:54:56.613Z,12.10
2019-04-30T12:57:56.137Z,11.90
2019-04-30T13:00:20.757Z,11.90
2019-04-30T13:02:53.034Z,12.20
2019-04-30T13:05:24.202Z,12.50
2019-04-30T13:07:59.489Z,12.30
2019-04-30T13:10:31.173Z,12.50
2019-04-30T13:13:05.085Z,12.70
2019-04-30T13:15:35.735Z,12.70
2019-04-30T13:18:12.041Z,12.80
2019-04-30T13:20:43.820Z,13.10
2019-04-30T13:23:13.420Z,13.10
2019-04-30T13:25:51.340Z,13.20
2019-04-30T13:28:23.227Z,13.70
2019-04-30T13:30:56.672Z,14.00
2019-04-30T13:33:58.106Z,13.90
2019-04-30T13:36:29.647Z,13.90
2019-04-30T13:39:13.648Z,14.10
2019-04-30T13:41:54.557Z,14.40
2019-04-30T13:44:39.357Z,14.30
2019-04-30T13:47:11.002Z,14.50
2019-04-30T13:49:42.097Z,14.60
2019-04-30T13:52:16.711Z,14.60
2019-04-30T13:54:49.805Z,15.10
2019-04-30T13:57:23.072Z,15.20
2019-04-30T13:59:58.522Z,14.90
2019-04-30T14:02:30.088Z,15.20
2019-04-30T14:05:15.896Z,15.00
2019-04-30T14:08:03.278Z,15.50
2019-04-30T14:10:36.935Z,15.50
2019-04-30T14:13:10.011Z,15.80
2019-04-30T14:15:42.801Z,15.70
2019-04-30T14:18:12.232Z,15.60
2019-04-30T14:20:42.562Z,15.90
2019-04-30T14:23:15.800Z,15.50
2019-04-30T14:25:56.354Z,15.50
2019-04-30T14:28:21.946Z,15.90
2019-04-30T14:30:53.464Z,16.40
2019-04-30T14:33:26.805Z,16.70
2019-04-30T14:36:00.562Z,16.50
2019-04-30T14:38:34.697Z,16.40
2019-04-30T14:41:08.574Z,16.70
2019-04-30T14:43:51.299Z,17.00
2019-04-30T14:46:43.189Z,17.20
2019-04-30T14:49:42.492Z,17.00
2019-04-30T14:52:19.298Z,16.90
2019-04-30T14:55:02.710Z,16.70
2019-04-30T14:57:51.275Z,17.00
2019-04-30T15:00:43.569Z,16.70
2019-04-30T15:03:15.395Z,17.00
2019-04-30T15:05:50.936Z,16.80
2019-04-30T15:08:20.306Z,16.70
2019-04-30T15:10:51.996Z,16.80
2019-04-30T15:13:23.164Z,16.60
2019-04-30T15:15:56.413Z,16.80
2019-04-30T15:18:29.041Z,16.30
2019-04-30T15:21:00.279Z,16.30
2019-04-30T15:23:58.541Z,15.80
2019-04-30T15:26:28.743Z,15.50
2019-04-30T15:29:00.104Z,15.90
2019-04-30T15:31:33.489Z,16.40
2019-04-30T15:34:13.521Z,16.10
2019-04-30T15:36:44.256Z,15.60
2019-04-30T15:39:21.369Z,15.00
2019-04-30T15:41:53.586Z,15.30
2019-04-30T15:44:27.037Z,14.80
2019-04-30T15:47:00.574Z,14.70
2019-04-30T15:49:35.977Z,14.20
2019-04-30T15:52:08.961Z,15.00
2019-04-30T15:54:40.337Z,14.90
2019-04-30T15:57:12.533Z,14.60
2019-04-30T15:59:44.959Z,14.80
2019-04-30T16:02:57.099Z,14.30
2019-04-30T16:05:43.304Z,14.80
2019-04-30T16:08:39.475Z,14.50
2019-04-30T16:11:34.847Z,14.20
2019-04-30T16:14:12.479Z,14.00
2019-04-30T16:16:46.318Z,14.60
2019-04-30T16:19:18.770Z,14.70
2019-04-30T16:21:50.861Z,13.90
2019-04-30T16:24:22.028Z,12.10
2019-04-30T16:26:54.907Z,11.90
2019-04-30T16:29:28.571Z,10.80
2019-04-30T16:32:00.274Z,10.90
2019-04-30T16:34:31.449Z,10.90
2019-04-30T16:37:04.594Z,10.90
2019-04-30T16:39:35.767Z,10.30
2019-04-30T16:42:11.058Z,10.20
2019-04-30T16:44:44.155Z,10.70
2019-04-30T16:47:19.910Z,9.80
2019-04-30T16:49:58.904Z,10.10
2019-04-30T16:52:29.653Z,10.60
2019-04-30T16:55:00.735Z,11.20
2019-04-30T16:57:32.149Z,11.20
2019-04-30T17:00:01.949Z,10.90
2019-04-30T17:02:34.901Z,10.30
2019-04-30T17:05:39.472Z,10.90
2019-04-30T17:08:36.630Z,10.80
2019-04-30T17:11:17.768Z,11.20
2019-04-30T17:13:53.108Z,11.70
2019-04-30T17:16:24.557Z,12.10
2019-04-30T17:18:59.048Z,12.30
2019-04-30T17:21:29.985Z,12.40
2019-04-30T17:24:03.249Z,12.60
2019-04-30T17:26:34.289Z,12.50
2019-04-30T17:29:09.622Z,12.30
2019-04-30T17:31:42.775Z,12.60
2019-04-30T17:34:15.082Z,12.50
2019-04-30T17:36:46.170Z,12.30
2019-04-30T17:39:19.898Z,12.40
2019-04-30T17:41:50.614Z,12.40
2019-04-30T17:44:21.780Z,12.50
2019-04-30T17:46:53.945Z,12.50
2019-04-30T17:49:28.233Z,12.40
2019-04-30T17:52:00.400Z,12.10
2019-04-30T17:54:36.276Z,12.20
2019-04-30T17:57:10.405Z,12.20
2019-04-30T17:59:41.780Z,12.10
2019-04-30T18:02:15.157Z,12.00
2019-04-30T18:04:47.340Z,11.90
2019-04-30T18:07:19.793Z,11.80
2019-04-30T18:09:54.868Z,11.10
2019-04-30T18:12:30.038Z,11.20
2019-04-30T18:15:02.232Z,11.30
2019-04-30T18:17:34.112Z,11.20
2019-04-30T18:20:19.242Z,11.20
2019-04-30T18:23:03.069Z,11.00
2019-04-30T18:25:44.116Z,10.80
2019-04-30T18:28:15.477Z,10.30
2019-04-30T18:30:49.039Z,10.50
2019-04-30T18:33:24.723Z,10.10
2019-04-30T18:35:59.531Z,10.30
2019-04-30T18:38:33.466Z,10.30
2019-04-30T18:41:03.796Z,10.10
2019-04-30T18:43:33.644Z,9.90
2019-04-30T18:46:03.261Z,10.00
2019-04-30T18:48:34.770Z,9.60
2019-04-30T18:51:23.496Z,9.50
2019-04-30T18:53:40.951Z,9.40
2019-04-30T18:56:14.654Z,9.40
2019-04-30T18:58:45.429Z,9.10
2019-04-30T19:01:16.342Z,9.10
2019-04-30T19:03:49.049Z,9.00
2019-04-30T19:06:29.913Z,9.00
2019-04-30T19:09:29.710Z,8.80
2019-04-30T19:12:19.387Z,8.70
2019-04-30T19:15:09.322Z,8.80
2019-04-30T19:17:55.515Z,8.60
2019-04-30T19:20:29.954Z,8.40
2019-04-30T19:23:02.242Z,8.50
2019-04-30T19:25:35.185Z,8.30
2019-04-30T19:28:12.118Z,8.20
2019-04-30T19:30:41.551Z,8.10
2019-04-30T19:33:11.275Z,7.90
2019-04-30T19:35:45.003Z,7.80
2019-04-30T19:38:19.126Z,7.80
2019-04-30T19:40:51.352Z,7.80
2019-04-30T19:43:25.802Z,7.70
2019-04-30T19:45:59.207Z,7.60
2019-04-30T19:48:33.460Z,7.40
2019-04-30T19:51:04.733Z,7.30
2019-04-30T19:53:41.069Z,7.40
2019-04-30T19:56:15.989Z,7.40
2019-04-30T19:59:01.512Z,7.30
2019-04-30T20:01:24.585Z,7.20
2019-04-30T20:03:55.144Z,7.10
2019-04-30T20:06:28.711Z,7.10
2019-04-30T20:09:00.806Z,7.10
2019-04-30T20:11:33.205Z,7.00
2019-04-30T20:14:08.525Z,6.90
2019-04-30T20:16:40.378Z,6.90
2019-04-30T20:19:09.789Z,6.80
2019-04-30T20:21:48.460Z,6.70
2019-04-30T20:24:19.104Z,6.70
2019-04-30T20:26:58.266Z,6.60
2019-04-30T20:29:28.681Z,6.70
2019-04-30T20:31:58.975Z,6.60
2019-04-30T20:34:29.644Z,6.50
2019-04-30T20:37:00.337Z,6.50
2019-04-30T20:39:46.550Z,6.40
2019-04-30T20:42:18.968Z,6.30
2019-04-30T20:44:52.180Z,6.30
2019-04-30T20:47:24.401Z,6.20
2019-04-30T20:49:58.120Z,6.10
2019-04-30T20:52:32.251Z,6.00
2019-04-30T20:55:03.643Z,6.00
2019-04-30T20:57:36.345Z,6.00
2019-04-30T21:00:08.230Z,5.90
2019-04-30T21:02:40.123Z,5.80
2019-04-30T21:05:11.901Z,5.80
2019-04-30T21:07:41.042Z,5.70
2019-04-30T21:10:12.401Z,5.70
2019-04-30T21:12:49.852Z,5.70
2019-04-30T21:15:21.078Z,5.70
2019-04-30T21:17:54.280Z,5.60
2019-04-30T21:20:28.874Z,5.60
2019-04-30T21:23:01.656Z,5.60
2019-04-30T21:25:34.331Z,5.50
2019-04-30T21:28:05.692Z,5.50
2019-04-30T21:30:37.845Z,5.50
2019-04-30T21:33:22.551Z,5.30
2019-04-30T21:36:18.948Z,5.30
2019-04-30T21:38:49.926Z,5.30
2019-04-30T21:41:20.794Z,5.30
2019-04-30T21:43:49.309Z,5.30
2019-04-30T21:46:19.179Z,5.30
2019-04-30T21:48:50.988Z,5.20
2019-04-30T21:51:24.204Z,5.20
2019-04-30T21:53:58.438Z,5.20
2019-04-30T21:56:32.652Z,5.20
2019-04-30T21:59:23.539Z,5.20
2019-04-30T22:01:45.119Z,5.20
2019-04-30T22:04:15.599Z,5.10
2019-04-30T22:06:49.471Z,5.10
2019-04-30T22:09:20.154Z,5.10
2019-04-30T22:11:50.840Z,5.00
2019-04-30T22:14:24.294Z,5.10
2019-04-30T22:16:56.979Z,5.10
2019-04-30T22:19:28.257Z,5.00
2019-04-30T22:21:59.447Z,5.10
2019-04-30T22:24:32.158Z,5.10
2019-04-30T22:27:01.897Z,5.10
2019-04-30T22:29:39.387Z,5.00
2019-04-30T22:32:09.368Z,5.00
2019-04-30T22:34:41.144Z,4.90
2019-04-30T22:37:11.199Z,5.00
2019-04-30T22:39:52.246Z,5.00
2019-04-30T22:42:40.959Z,5.00
2019-04-30T22:45:31.598Z,5.10
2019-04-30T22:48:03.827Z,5.20
2019-04-30T22:50:40.189Z,5.30
2019-04-30T22:53:10.044Z,5.30
2019-04-30T22:55:41.649Z,5.30
2019-04-30T22:58:12.940Z,5.40
2019-04-30T23:00:45.607Z,5.50
2019-04-30T23:03:20.942Z,5.50
2019-04-30T23:05:54.569Z,5.60
2019-04-30T23:08:28.917Z,5.70
2019-04-30T23:11:03.124Z,5.70
2019-04-30T23:13:35.273Z,5.80
2019-04-30T23:16:10.701Z,5.70
2019-04-30T23:18:45.205Z,5.80
2019-04-30T23:21:17.802Z,5.80
2019-04-30T23:23:51.951Z,5.80
2019-04-30T23:26:24.013Z,5.80
2019-04-30T23:28:56.245Z,5.80
2019-04-30T23:31:27.352Z,5.80
2019-04-30T23:34:00.809Z,5.80
2019-04-30T23:36:31.278Z,5.90
2019-04-30T23:39:01.846Z,5.90
2019-04-30T23:41:36.969Z,5.90
2019-04-30T23:44:08.723Z,5.90
2019-04-30T23:46:39.252Z,5.80
2019-04-30T23:49:12.492Z,5.90
2019-04-30T23:51:50.385Z,5.80
2019-04-30T23:54:22.645Z,5.80
2019-04-30T23:56:52.408Z,5.80
2019-04-30T23:59:24.088Z,5.80
